Terminal Aerodrome Forecast
Issued by NWS Charleston, WV

Current Version | Previous Version | Text Only | Print | Product List | Glossary Off
Versions: 1 2 3 4 5 6 7 8 9 10 11 12 13 14 15 16 17 18 19 20 21 22 23 24 25 26

000
FTUS41 KRLX 170500
TAFCRW
TAF
KCRW 170521Z 1706/1806 00000KT 1/4SM FG BKN001
     FM171300 00000KT 2SM BR FEW001 BKN015
     FM171400 00000KT 6SM BR BKN015
     FM171500 00000KT P6SM BKN025
     FM171600 30004KT P6SM FEW035=

USA.gov is the U.S. government's official web portal to all federal, state and local government web resources and services.